createdAt,value
2023-02-02T00:00:17.857Z,85.300000
2023-02-02T00:05:18.012Z,84.816667
2023-02-02T00:10:17.938Z,84.525000
2023-02-02T00:15:18.060Z,84.045833
2023-02-02T00:20:17.946Z,83.587500
2023-02-02T00:25:17.843Z,83.176000
2023-02-02T00:30:17.813Z,82.929167
2023-02-02T00:35:17.817Z,82.800000
2023-02-02T00:40:18.035Z,82.800000
2023-02-02T00:45:17.947Z,82.783333
2023-02-02T00:50:17.835Z,82.691667
2023-02-02T00:55:17.858Z,82.304167
2023-02-02T01:00:17.886Z,82.045833
2023-02-02T01:05:17.868Z,82.016667
2023-02-02T01:10:18.111Z,82.016667
2023-02-02T01:15:17.894Z,82.050000
2023-02-02T01:20:17.862Z,82.000000
2023-02-02T01:25:17.905Z,82.008000
2023-02-02T01:30:18.227Z,82.008333
2023-02-02T01:35:17.832Z,82.004167
2023-02-02T01:40:17.833Z,81.904000
2023-02-02T01:45:18.072Z,81.583333
2023-02-02T01:50:17.776Z,81.425000
2023-02-02T01:55:18.008Z,81.125000
2023-02-02T02:00:17.846Z,80.816667
2023-02-02T02:05:17.827Z,80.662500
2023-02-02T02:10:17.812Z,80.500000
2023-02-02T02:15:17.929Z,80.483333
2023-02-02T02:20:19.746Z,80.237500
2023-02-02T02:25:17.767Z,80.070833
2023-02-02T02:30:17.897Z,80.020833
2023-02-02T02:35:18.041Z,80.104167
2023-02-02T02:40:17.947Z,80.095833
2023-02-02T02:45:17.852Z,79.925000
2023-02-02T02:50:17.851Z,79.816667
2023-02-02T02:55:17.919Z,79.487500
2023-02-02T03:00:18.051Z,79.170833
2023-02-02T03:05:17.894Z,79.054167
2023-02-02T03:10:17.843Z,78.680000
2023-02-02T03:15:18.050Z,78.358333
2023-02-02T03:20:18.118Z,78.266667
2023-02-02T03:25:18.090Z,78.200000
2023-02-02T03:30:18.153Z,78.062500
2023-02-02T03:35:18.081Z,78.070833
2023-02-02T03:40:18.002Z,77.845833
2023-02-02T03:45:18.005Z,77.772000
2023-02-02T03:50:17.885Z,77.583333
2023-02-02T03:55:17.872Z,77.483333
2023-02-02T04:00:18.031Z,77.200000
2023-02-02T04:05:17.797Z,77.091667
2023-02-02T04:10:17.907Z,76.966667
2023-02-02T04:15:18.244Z,77.008333
2023-02-02T04:20:18.096Z,76.995833
2023-02-02T04:25:17.815Z,76.879167
2023-02-02T04:30:17.883Z,76.784000
2023-02-02T04:35:17.811Z,76.600000
2023-02-02T04:40:17.845Z,76.404167
2023-02-02T04:45:17.902Z,76.225000
2023-02-02T04:50:17.752Z,76.175000
2023-02-02T04:55:17.957Z,76.075000
2023-02-02T05:00:17.938Z,75.862500
2023-02-02T05:05:18.060Z,75.833333
2023-02-02T05:10:17.916Z,75.750000
2023-02-02T05:15:17.881Z,75.654167
2023-02-02T05:20:17.749Z,75.662500
2023-02-02T05:25:17.971Z,75.683333
2023-02-02T05:30:17.800Z,75.779167
2023-02-02T05:35:18.372Z,75.768000
2023-02-02T05:40:17.740Z,75.816667
2023-02-02T05:45:17.791Z,75.800000
2023-02-02T05:50:17.813Z,75.795833
2023-02-02T05:55:17.998Z,75.845833
2023-02-02T06:00:17.629Z,76.008333
2023-02-02T06:05:17.690Z,76.087500
2023-02-02T06:10:17.873Z,76.262500
2023-02-02T06:15:18.340Z,76.450000
2023-02-02T06:20:17.843Z,76.562500
2023-02-02T06:25:17.786Z,76.379167
2023-02-02T06:30:17.772Z,76.500000
2023-02-02T06:35:17.828Z,76.500000
2023-02-02T06:40:17.850Z,76.500000
2023-02-02T06:45:17.813Z,76.466667
2023-02-02T06:50:17.986Z,76.316667
2023-02-02T06:55:17.811Z,76.337500
2023-02-02T07:00:20.413Z,76.316667
2023-02-02T07:05:17.990Z,76.266667
2023-02-02T07:11:12.431Z,76.400000
2023-02-02T07:15:17.902Z,76.504167
2023-02-02T07:20:17.775Z,76.562500
2023-02-02T07:25:18.114Z,76.650000
2023-02-02T07:30:18.036Z,76.637500
2023-02-02T07:35:18.100Z,76.662500
2023-02-02T07:40:17.827Z,76.641667
2023-02-02T07:45:27.003Z,76.783333
2023-02-02T07:50:17.781Z,76.691667
2023-02-02T07:55:17.827Z,76.666667
2023-02-02T08:00:17.840Z,76.716667
2023-02-02T08:05:17.873Z,76.708333
2023-02-02T08:10:17.947Z,76.545833
2023-02-02T08:15:17.859Z,76.291667
2023-02-02T08:20:17.783Z,76.375000
2023-02-02T08:25:17.983Z,76.245833
2023-02-02T08:30:17.692Z,76.216667
2023-02-02T08:35:17.638Z,76.004167
2023-02-02T08:40:17.911Z,75.783333
2023-02-02T08:46:01.460Z,75.620833
2023-02-02T08:50:17.698Z,75.558333
2023-02-02T08:55:18.083Z,75.625000
2023-02-02T09:00:17.745Z,75.783333
2023-02-02T09:05:17.792Z,75.925000
2023-02-02T09:10:17.635Z,75.983333
2023-02-02T09:15:18.208Z,76.016667
2023-02-02T09:20:19.692Z,76.037500
2023-02-02T09:25:17.702Z,76.029167
2023-02-02T09:30:17.786Z,76.004167
2023-02-02T09:35:17.731Z,76.045833
2023-02-02T09:40:18.229Z,76.200000
2023-02-02T09:45:18.055Z,76.204167
2023-02-02T09:50:17.740Z,76.220000
2023-02-02T09:55:17.741Z,76.425000
2023-02-02T10:00:17.673Z,76.537500
2023-02-02T10:05:17.634Z,76.679167
2023-02-02T10:10:17.978Z,76.579167
2023-02-02T10:15:17.914Z,76.666667
2023-02-02T10:20:17.680Z,76.508333
2023-02-02T10:25:17.733Z,76.360000
2023-02-02T10:30:17.676Z,76.362500
2023-02-02T10:35:17.632Z,76.708333
2023-02-02T10:40:17.816Z,77.170833
2023-02-02T10:45:17.553Z,78.116667
2023-02-02T10:50:17.937Z,79.033333
2023-02-02T10:55:17.705Z,79.737500
2023-02-02T11:00:17.815Z,80.362500
2023-02-02T11:05:17.875Z,81.075000
2023-02-02T11:10:17.617Z,81.170833
2023-02-02T11:15:17.956Z,80.970833
2023-02-02T11:20:17.641Z,80.700000
2023-02-02T11:25:17.631Z,80.533333
2023-02-02T11:30:17.627Z,80.658333
2023-02-02T11:35:17.929Z,80.795833
2023-02-02T11:40:18.026Z,80.858333
2023-02-02T11:45:18.140Z,80.995833
2023-02-02T11:50:18.509Z,81.279167
2023-02-02T11:55:17.782Z,81.416667
2023-02-02T12:00:18.148Z,81.762500
2023-02-02T12:05:17.636Z,82.710000
2023-02-02T12:10:17.849Z,82.924000
2023-02-02T12:15:17.850Z,82.341667
2023-02-02T12:20:17.559Z,81.683333
2023-02-02T12:25:17.661Z,81.262500
2023-02-02T12:30:17.644Z,81.550000
2023-02-02T12:35:17.802Z,81.766667
2023-02-02T12:40:17.835Z,82.275000
2023-02-02T12:45:17.849Z,82.133333
2023-02-02T12:50:18.063Z,82.366667
2023-02-02T12:55:17.781Z,82.341667
2023-02-02T13:00:17.707Z,81.866667
2023-02-02T13:05:17.543Z,81.900000
2023-02-02T13:10:17.569Z,82.112500
2023-02-02T13:15:17.739Z,81.845833
2023-02-02T13:20:17.550Z,82.479167
2023-02-02T13:25:17.496Z,83.008333
2023-02-02T13:30:17.563Z,83.004167
2023-02-02T13:35:17.775Z,83.120833
2023-02-02T13:40:17.494Z,83.150000
2023-02-02T13:45:17.576Z,83.629167
2023-02-02T13:50:17.514Z,83.337500
2023-02-02T13:55:17.655Z,82.800000
2023-02-02T14:00:17.686Z,82.804167
2023-02-02T14:05:18.110Z,82.920833
2023-02-02T14:10:17.508Z,82.950000
2023-02-02T14:15:18.004Z,83.016667
2023-02-02T14:20:17.602Z,82.925000
2023-02-02T14:25:17.625Z,83.150000
2023-02-02T14:30:17.913Z,83.116667
2023-02-02T14:35:17.610Z,83.045833
2023-02-02T14:40:17.607Z,83.350000
2023-02-02T14:45:17.598Z,83.425000
2023-02-02T14:50:17.604Z,83.583333
2023-02-02T14:55:17.806Z,83.587500
2023-02-02T15:00:17.535Z,83.445833
2023-02-02T15:05:17.560Z,83.300000
2023-02-02T15:10:17.492Z,83.466667
2023-02-02T15:15:17.734Z,83.691667
2023-02-02T15:20:17.733Z,83.850000
2023-02-02T15:25:17.595Z,83.933333
2023-02-02T15:30:17.536Z,84.187500
2023-02-02T15:35:17.679Z,84.362500
2023-02-02T15:40:17.516Z,84.458333
2023-02-02T15:45:17.492Z,84.391667
2023-02-02T15:50:17.610Z,84.500000
2023-02-02T15:55:17.646Z,84.566667
2023-02-02T16:00:17.485Z,84.666667
2023-02-02T16:05:17.576Z,84.808333
2023-02-02T16:10:17.709Z,84.900000
2023-02-02T16:15:17.714Z,84.900000
2023-02-02T16:20:17.487Z,84.895833
2023-02-02T16:25:17.587Z,84.816667
2023-02-02T16:30:17.531Z,84.766667
2023-02-02T16:35:17.673Z,84.754167
2023-02-02T16:40:17.516Z,84.700000
2023-02-02T16:45:17.583Z,84.700000
2023-02-02T16:50:17.429Z,84.700000
2023-02-02T16:55:17.915Z,84.729167
2023-02-02T17:00:17.487Z,84.600000
2023-02-02T17:05:17.625Z,84.600000
2023-02-02T17:10:17.442Z,84.741667
2023-02-02T17:15:17.699Z,84.879167
2023-02-02T17:20:17.533Z,84.995833
2023-02-02T17:25:17.584Z,85.050000
2023-02-02T17:30:17.544Z,85.083333
2023-02-02T17:35:17.609Z,85.087500
2023-02-02T17:40:17.461Z,85.050000
2023-02-02T17:45:17.874Z,85.016667
2023-02-02T17:50:17.547Z,84.887500
2023-02-02T17:55:17.464Z,84.608333
2023-02-02T18:00:17.646Z,84.600000
2023-02-02T18:05:17.476Z,84.762500
2023-02-02T18:10:17.507Z,84.900000
2023-02-02T18:15:17.683Z,85.000000
2023-02-02T18:20:17.621Z,85.258333
2023-02-02T18:25:17.481Z,85.425000
2023-02-02T18:30:17.434Z,85.541667
2023-02-02T18:35:17.575Z,85.583333
2023-02-02T18:40:17.553Z,85.479167
2023-02-02T18:45:17.634Z,85.500000
2023-02-02T18:50:17.434Z,85.500000
2023-02-02T18:55:17.505Z,85.545833
2023-02-02T19:00:17.480Z,85.687500
2023-02-02T19:05:17.504Z,85.783333
2023-02-02T19:10:17.496Z,85.816667
2023-02-02T19:15:17.790Z,85.837500
2023-02-02T19:20:17.487Z,85.800000
2023-02-02T19:25:17.467Z,85.804167
2023-02-02T19:30:17.556Z,85.716667
2023-02-02T19:35:17.504Z,85.666667
2023-02-02T19:40:17.461Z,85.625000
2023-02-02T19:45:17.468Z,85.675000
2023-02-02T19:50:17.398Z,85.854167
2023-02-02T19:55:17.823Z,85.950000
2023-02-02T20:00:17.818Z,85.845833
2023-02-02T20:05:17.887Z,85.760000
2023-02-02T20:10:17.416Z,85.658333
2023-02-02T20:15:17.677Z,85.658333
2023-02-02T20:20:17.487Z,85.662500
2023-02-02T20:25:17.659Z,85.616667
2023-02-02T20:30:17.659Z,85.600000
2023-02-02T20:35:17.403Z,85.600000
2023-02-02T20:40:17.332Z,85.645833
2023-02-02T20:45:17.483Z,85.750000
2023-02-02T20:50:17.384Z,85.775000
2023-02-02T20:55:17.430Z,85.762500
2023-02-02T21:00:17.405Z,85.762500
2023-02-02T21:05:17.588Z,85.800000
2023-02-02T21:10:17.400Z,85.754167
2023-02-02T21:15:17.816Z,85.700000
2023-02-02T21:20:17.385Z,85.700000
2023-02-02T21:25:17.561Z,85.704167
2023-02-02T21:30:17.356Z,85.787500
2023-02-02T21:35:17.703Z,85.895833
2023-02-02T21:40:17.562Z,85.900000
2023-02-02T21:45:17.419Z,85.900000
2023-02-02T21:50:17.410Z,85.933333
2023-02-02T21:55:17.804Z,85.988000
2023-02-02T22:00:17.399Z,86.112500
2023-02-02T22:05:17.459Z,86.183333
2023-02-02T22:10:17.416Z,86.116667
2023-02-02T22:15:17.647Z,85.987500
2023-02-02T22:20:17.623Z,85.900000
2023-02-02T22:25:17.552Z,85.900000
2023-02-02T22:30:17.501Z,85.900000
2023-02-02T22:35:17.429Z,85.900000
2023-02-02T22:40:17.502Z,85.900000
2023-02-02T22:45:17.631Z,85.900000
2023-02-02T22:50:17.467Z,85.900000
2023-02-02T22:55:17.478Z,85.900000
2023-02-02T23:00:17.870Z,85.883333
2023-02-02T23:05:17.789Z,85.900000
2023-02-02T23:10:17.523Z,85.904167
2023-02-02T23:15:17.660Z,86.016667
2023-02-02T23:20:17.518Z,86.050000
2023-02-02T23:25:17.613Z,86.100000
2023-02-02T23:30:17.770Z,86.195833
2023-02-02T23:35:17.531Z,86.241667
2023-02-02T23:40:17.505Z,86.304167
2023-02-02T23:45:17.449Z,86.404167
2023-02-02T23:50:17.475Z,86.604167
2023-02-02T23:55:17.385Z,86.700000
